sensor_id;sensor_type;location;lat;lon;timestamp;P1;durP1;ratioP1;P2;durP2;ratioP2
65855;SDS011;52631;42.208;24.656;2022-10-18T00:01:01;9.10;;;6.05;;
65855;SDS011;52631;42.208;24.656;2022-10-18T00:03:27;12.27;;;6.30;;
65855;SDS011;52631;42.208;24.656;2022-10-18T00:05:53;14.23;;;6.93;;
65855;SDS011;52631;42.208;24.656;2022-10-18T00:08:18;12.68;;;6.22;;
65855;SDS011;52631;42.208;24.656;2022-10-18T00:10:45;9.13;;;5.50;;
65855;SDS011;52631;42.208;24.656;2022-10-18T00:13:10;11.48;;;5.45;;
65855;SDS011;52631;42.208;24.656;2022-10-18T00:15:36;9.98;;;5.93;;
65855;SDS011;52631;42.208;24.656;2022-10-18T00:18:01;9.13;;;5.22;;
65855;SDS011;52631;42.208;24.656;2022-10-18T00:20:27;13.35;;;5.50;;
65855;SDS011;52631;42.208;24.656;2022-10-18T00:22:52;9.25;;;5.40;;
65855;SDS011;52631;42.208;24.656;2022-10-18T00:25:18;11.27;;;4.60;;
65855;SDS011;52631;42.208;24.656;2022-10-18T00:27:44;10.07;;;4.57;;
65855;SDS011;52631;42.208;24.656;2022-10-18T00:30:09;9.93;;;4.90;;
65855;SDS011;52631;42.208;24.656;2022-10-18T00:32:37;9.63;;;5.22;;
65855;SDS011;52631;42.208;24.656;2022-10-18T00:35:04;9.77;;;5.55;;
65855;SDS011;52631;42.208;24.656;2022-10-18T00:37:30;8.40;;;5.13;;
65855;SDS011;52631;42.208;24.656;2022-10-18T00:39:56;11.65;;;5.85;;
65855;SDS011;52631;42.208;24.656;2022-10-18T00:42:23;10.27;;;6.05;;
65855;SDS011;52631;42.208;24.656;2022-10-18T00:44:58;9.38;;;5.70;;
65855;SDS011;52631;42.208;24.656;2022-10-18T00:47:25;13.80;;;5.82;;
65855;SDS011;52631;42.208;24.656;2022-10-18T00:49:52;9.70;;;6.03;;
65855;SDS011;52631;42.208;24.656;2022-10-18T00:52:36;13.63;;;5.95;;
65855;SDS011;52631;42.208;24.656;2022-10-18T00:55:07;12.18;;;6.43;;
65855;SDS011;52631;42.208;24.656;2022-10-18T00:57:33;13.38;;;6.90;;
65855;SDS011;52631;42.208;24.656;2022-10-18T00:59:58;13.32;;;6.40;;
65855;SDS011;52631;42.208;24.656;2022-10-18T01:02:24;10.25;;;6.20;;
65855;SDS011;52631;42.208;24.656;2022-10-18T01:04:50;10.23;;;6.18;;
65855;SDS011;52631;42.208;24.656;2022-10-18T01:12:40;10.35;;;6.68;;
65855;SDS011;52631;42.208;24.656;2022-10-18T01:23:01;10.27;;;6.47;;
65855;SDS011;52631;42.208;24.656;2022-10-18T01:31:34;10.40;;;7.18;;
65855;SDS011;52631;42.208;24.656;2022-10-18T01:34:02;14.10;;;7.05;;
65855;SDS011;52631;42.208;24.656;2022-10-18T01:36:39;12.85;;;6.53;;
65855;SDS011;52631;42.208;24.656;2022-10-18T01:39:08;13.27;;;6.68;;
65855;SDS011;52631;42.208;24.656;2022-10-18T01:41:36;11.75;;;6.85;;
65855;SDS011;52631;42.208;24.656;2022-10-18T01:44:03;9.68;;;5.68;;
65855;SDS011;52631;42.208;24.656;2022-10-18T01:46:31;12.18;;;6.70;;
65855;SDS011;52631;42.208;24.656;2022-10-18T01:48:57;15.57;;;5.32;;
65855;SDS011;52631;42.208;24.656;2022-10-18T01:51:24;10.68;;;5.93;;
65855;SDS011;52631;42.208;24.656;2022-10-18T01:53:51;11.90;;;5.70;;
65855;SDS011;52631;42.208;24.656;2022-10-18T01:59:00;9.65;;;5.85;;
65855;SDS011;52631;42.208;24.656;2022-10-18T02:01:53;9.35;;;5.45;;
65855;SDS011;52631;42.208;24.656;2022-10-18T02:07:01;9.77;;;5.95;;
65855;SDS011;52631;42.208;24.656;2022-10-18T02:09:48;9.77;;;5.75;;
65855;SDS011;52631;42.208;24.656;2022-10-18T02:12:19;10.52;;;5.45;;
65855;SDS011;52631;42.208;24.656;2022-10-18T02:14:45;11.40;;;5.68;;
65855;SDS011;52631;42.208;24.656;2022-10-18T02:17:12;17.23;;;6.20;;
65855;SDS011;52631;42.208;24.656;2022-10-18T02:19:41;14.60;;;6.75;;
65855;SDS011;52631;42.208;24.656;2022-10-18T02:22:09;13.85;;;7.53;;
65855;SDS011;52631;42.208;24.656;2022-10-18T02:24:37;16.08;;;8.10;;
65855;SDS011;52631;42.208;24.656;2022-10-18T02:27:06;26.42;;;12.18;;
65855;SDS011;52631;42.208;24.656;2022-10-18T02:29:32;24.25;;;11.35;;
65855;SDS011;52631;42.208;24.656;2022-10-18T02:35:32;9.83;;;5.47;;
65855;SDS011;52631;42.208;24.656;2022-10-18T02:37:53;8.10;;;4.65;;
65855;SDS011;52631;42.208;24.656;2022-10-18T02:40:21;8.68;;;4.68;;
65855;SDS011;52631;42.208;24.656;2022-10-18T02:42:48;9.40;;;5.32;;
65855;SDS011;52631;42.208;24.656;2022-10-18T02:45:14;7.80;;;4.45;;
65855;SDS011;52631;42.208;24.656;2022-10-18T02:47:40;8.85;;;4.78;;
65855;SDS011;52631;42.208;24.656;2022-10-18T02:50:06;16.30;;;4.93;;
65855;SDS011;52631;42.208;24.656;2022-10-18T02:52:32;7.65;;;4.88;;
65855;SDS011;52631;42.208;24.656;2022-10-18T02:54:57;9.27;;;4.75;;
65855;SDS011;52631;42.208;24.656;2022-10-18T02:57:23;9.48;;;4.75;;
65855;SDS011;52631;42.208;24.656;2022-10-18T02:59:48;10.85;;;5.13;;
65855;SDS011;52631;42.208;24.656;2022-10-18T03:02:13;13.10;;;5.40;;
65855;SDS011;52631;42.208;24.656;2022-10-18T03:04:39;11.82;;;5.05;;
65855;SDS011;52631;42.208;24.656;2022-10-18T03:07:04;11.13;;;5.78;;
65855;SDS011;52631;42.208;24.656;2022-10-18T03:09:30;17.83;;;6.72;;
65855;SDS011;52631;42.208;24.656;2022-10-18T03:11:56;20.45;;;7.75;;
65855;SDS011;52631;42.208;24.656;2022-10-18T03:14:21;19.48;;;6.60;;
65855;SDS011;52631;42.208;24.656;2022-10-18T03:16:47;20.73;;;7.93;;
65855;SDS011;52631;42.208;24.656;2022-10-18T03:19:12;16.98;;;6.30;;
65855;SDS011;52631;42.208;24.656;2022-10-18T03:21:38;15.15;;;6.13;;
65855;SDS011;52631;42.208;24.656;2022-10-18T03:24:03;14.77;;;5.45;;
65855;SDS011;52631;42.208;24.656;2022-10-18T03:26:29;11.13;;;5.55;;
65855;SDS011;52631;42.208;24.656;2022-10-18T03:28:54;9.60;;;4.97;;
65855;SDS011;52631;42.208;24.656;2022-10-18T03:31:20;9.23;;;5.28;;
65855;SDS011;52631;42.208;24.656;2022-10-18T03:33:45;10.18;;;5.07;;
65855;SDS011;52631;42.208;24.656;2022-10-18T03:36:11;11.82;;;5.45;;
65855;SDS011;52631;42.208;24.656;2022-10-18T03:38:36;12.05;;;4.65;;
65855;SDS011;52631;42.208;24.656;2022-10-18T03:41:02;9.20;;;4.90;;
65855;SDS011;52631;42.208;24.656;2022-10-18T03:43:27;10.13;;;5.07;;
65855;SDS011;52631;42.208;24.656;2022-10-18T03:45:53;12.98;;;5.07;;
65855;SDS011;52631;42.208;24.656;2022-10-18T03:48:18;7.35;;;4.97;;
65855;SDS011;52631;42.208;24.656;2022-10-18T03:50:44;9.85;;;5.00;;
65855;SDS011;52631;42.208;24.656;2022-10-18T03:53:10;6.95;;;4.13;;
65855;SDS011;52631;42.208;24.656;2022-10-18T03:55:35;9.85;;;5.47;;
65855;SDS011;52631;42.208;24.656;2022-10-18T03:58:01;8.02;;;4.72;;
65855;SDS011;52631;42.208;24.656;2022-10-18T04:00:27;8.50;;;4.82;;
65855;SDS011;52631;42.208;24.656;2022-10-18T04:02:52;8.38;;;4.50;;
65855;SDS011;52631;42.208;24.656;2022-10-18T04:05:18;8.85;;;5.28;;
65855;SDS011;52631;42.208;24.656;2022-10-18T04:07:44;13.25;;;5.97;;
65855;SDS011;52631;42.208;24.656;2022-10-18T04:10:09;13.30;;;6.55;;
65855;SDS011;52631;42.208;24.656;2022-10-18T04:12:34;10.18;;;6.00;;
65855;SDS011;52631;42.208;24.656;2022-10-18T04:15:00;12.70;;;6.50;;
65855;SDS011;52631;42.208;24.656;2022-10-18T04:17:26;14.60;;;8.00;;
65855;SDS011;52631;42.208;24.656;2022-10-18T04:19:51;18.85;;;8.23;;
65855;SDS011;52631;42.208;24.656;2022-10-18T04:22:17;14.70;;;7.53;;
65855;SDS011;52631;42.208;24.656;2022-10-18T04:24:42;12.27;;;6.38;;
65855;SDS011;52631;42.208;24.656;2022-10-18T04:27:08;14.77;;;7.28;;
65855;SDS011;52631;42.208;24.656;2022-10-18T04:29:33;11.75;;;6.60;;
65855;SDS011;52631;42.208;24.656;2022-10-18T04:31:59;11.05;;;6.07;;
65855;SDS011;52631;42.208;24.656;2022-10-18T04:34:24;8.82;;;5.28;;
65855;SDS011;52631;42.208;24.656;2022-10-18T04:36:50;11.52;;;6.20;;
65855;SDS011;52631;42.208;24.656;2022-10-18T04:39:15;9.35;;;5.70;;
65855;SDS011;52631;42.208;24.656;2022-10-18T04:41:41;13.05;;;6.32;;
65855;SDS011;52631;42.208;24.656;2022-10-18T04:44:07;8.88;;;5.55;;
65855;SDS011;52631;42.208;24.656;2022-10-18T04:46:33;11.52;;;5.75;;
65855;SDS011;52631;42.208;24.656;2022-10-18T04:48:58;11.70;;;5.38;;
65855;SDS011;52631;42.208;24.656;2022-10-18T04:51:26;9.30;;;5.82;;
65855;SDS011;52631;42.208;24.656;2022-10-18T04:53:52;13.88;;;5.18;;
65855;SDS011;52631;42.208;24.656;2022-10-18T04:56:17;15.40;;;6.18;;
65855;SDS011;52631;42.208;24.656;2022-10-18T04:58:43;11.05;;;6.28;;
65855;SDS011;52631;42.208;24.656;2022-10-18T05:01:08;12.68;;;6.35;;
65855;SDS011;52631;42.208;24.656;2022-10-18T05:03:34;11.00;;;6.10;;
65855;SDS011;52631;42.208;24.656;2022-10-18T05:06:00;9.95;;;5.70;;
65855;SDS011;52631;42.208;24.656;2022-10-18T05:08:25;10.68;;;5.55;;
65855;SDS011;52631;42.208;24.656;2022-10-18T05:10:50;9.43;;;5.78;;
65855;SDS011;52631;42.208;24.656;2022-10-18T05:13:16;13.60;;;6.10;;
65855;SDS011;52631;42.208;24.656;2022-10-18T05:15:41;11.50;;;6.97;;
65855;SDS011;52631;42.208;24.656;2022-10-18T05:18:07;16.23;;;8.48;;
65855;SDS011;52631;42.208;24.656;2022-10-18T05:20:32;15.77;;;7.35;;
65855;SDS011;52631;42.208;24.656;2022-10-18T05:22:58;14.40;;;7.68;;
65855;SDS011;52631;42.208;24.656;2022-10-18T05:25:23;10.55;;;6.32;;
65855;SDS011;52631;42.208;24.656;2022-10-18T05:27:49;12.57;;;5.85;;
65855;SDS011;52631;42.208;24.656;2022-10-18T05:30:14;10.00;;;5.22;;
65855;SDS011;52631;42.208;24.656;2022-10-18T05:32:40;11.05;;;5.85;;
65855;SDS011;52631;42.208;24.656;2022-10-18T05:35:05;10.95;;;4.72;;
65855;SDS011;52631;42.208;24.656;2022-10-18T05:37:31;17.55;;;5.53;;
65855;SDS011;52631;42.208;24.656;2022-10-18T05:39:57;10.70;;;5.55;;
65855;SDS011;52631;42.208;24.656;2022-10-18T05:42:22;13.65;;;7.30;;
65855;SDS011;52631;42.208;24.656;2022-10-18T05:44:48;10.50;;;6.78;;
65855;SDS011;52631;42.208;24.656;2022-10-18T05:47:13;11.40;;;7.45;;
65855;SDS011;52631;42.208;24.656;2022-10-18T05:49:38;12.80;;;6.93;;
65855;SDS011;52631;42.208;24.656;2022-10-18T05:52:04;11.02;;;6.85;;
65855;SDS011;52631;42.208;24.656;2022-10-18T05:54:29;11.77;;;6.85;;
65855;SDS011;52631;42.208;24.656;2022-10-18T05:56:55;20.15;;;7.82;;
65855;SDS011;52631;42.208;24.656;2022-10-18T05:59:20;15.68;;;7.70;;
65855;SDS011;52631;42.208;24.656;2022-10-18T06:01:46;16.33;;;7.20;;
65855;SDS011;52631;42.208;24.656;2022-10-18T06:04:11;15.10;;;6.88;;
65855;SDS011;52631;42.208;24.656;2022-10-18T06:06:37;15.82;;;9.23;;
65855;SDS011;52631;42.208;24.656;2022-10-18T06:09:03;16.90;;;9.05;;
65855;SDS011;52631;42.208;24.656;2022-10-18T06:11:29;13.50;;;7.50;;
65855;SDS011;52631;42.208;24.656;2022-10-18T06:13:55;12.90;;;7.30;;
65855;SDS011;52631;42.208;24.656;2022-10-18T06:16:24;12.80;;;7.22;;
65855;SDS011;52631;42.208;24.656;2022-10-18T06:18:52;10.50;;;6.72;;
65855;SDS011;52631;42.208;24.656;2022-10-18T06:21:19;12.30;;;6.63;;
65855;SDS011;52631;42.208;24.656;2022-10-18T06:23:48;11.13;;;6.07;;
65855;SDS011;52631;42.208;24.656;2022-10-18T06:26:14;11.82;;;6.53;;
65855;SDS011;52631;42.208;24.656;2022-10-18T06:28:40;12.40;;;7.30;;
65855;SDS011;52631;42.208;24.656;2022-10-18T06:31:05;13.05;;;7.00;;
65855;SDS011;52631;42.208;24.656;2022-10-18T06:33:32;12.45;;;6.80;;
65855;SDS011;52631;42.208;24.656;2022-10-18T06:35:59;7.70;;;4.53;;
65855;SDS011;52631;42.208;24.656;2022-10-18T06:38:25;11.77;;;6.35;;
65855;SDS011;52631;42.208;24.656;2022-10-18T06:40:52;9.85;;;5.47;;
65855;SDS011;52631;42.208;24.656;2022-10-18T06:43:18;12.13;;;5.55;;
65855;SDS011;52631;42.208;24.656;2022-10-18T06:45:43;11.43;;;5.82;;
65855;SDS011;52631;42.208;24.656;2022-10-18T06:48:09;9.38;;;6.10;;
65855;SDS011;52631;42.208;24.656;2022-10-18T06:50:34;13.55;;;6.25;;
65855;SDS011;52631;42.208;24.656;2022-10-18T06:52:59;10.98;;;5.88;;
65855;SDS011;52631;42.208;24.656;2022-10-18T06:55:28;10.77;;;5.40;;
65855;SDS011;52631;42.208;24.656;2022-10-18T06:57:54;8.15;;;5.10;;
65855;SDS011;52631;42.208;24.656;2022-10-18T07:00:20;18.40;;;7.03;;
65855;SDS011;52631;42.208;24.656;2022-10-18T07:02:45;14.82;;;6.82;;
65855;SDS011;52631;42.208;24.656;2022-10-18T07:05:11;10.30;;;5.80;;
65855;SDS011;52631;42.208;24.656;2022-10-18T07:07:36;8.80;;;5.63;;
65855;SDS011;52631;42.208;24.656;2022-10-18T07:10:02;8.43;;;5.40;;
65855;SDS011;52631;42.208;24.656;2022-10-18T07:12:29;9.05;;;5.53;;
65855;SDS011;52631;42.208;24.656;2022-10-18T07:14:55;9.15;;;5.60;;
65855;SDS011;52631;42.208;24.656;2022-10-18T07:17:20;10.07;;;5.40;;
65855;SDS011;52631;42.208;24.656;2022-10-18T07:19:46;8.77;;;5.50;;
65855;SDS011;52631;42.208;24.656;2022-10-18T07:22:11;9.40;;;5.10;;
65855;SDS011;52631;42.208;24.656;2022-10-18T07:24:37;14.52;;;5.55;;
65855;SDS011;52631;42.208;24.656;2022-10-18T07:27:02;14.27;;;6.65;;
65855;SDS011;52631;42.208;24.656;2022-10-18T07:29:28;9.45;;;5.32;;
65855;SDS011;52631;42.208;24.656;2022-10-18T07:31:53;9.73;;;5.80;;
65855;SDS011;52631;42.208;24.656;2022-10-18T07:34:19;11.82;;;5.97;;
65855;SDS011;52631;42.208;24.656;2022-10-18T07:36:44;9.65;;;5.75;;
65855;SDS011;52631;42.208;24.656;2022-10-18T07:39:09;10.52;;;6.05;;
65855;SDS011;52631;42.208;24.656;2022-10-18T07:41:35;9.93;;;5.20;;
65855;SDS011;52631;42.208;24.656;2022-10-18T07:44:01;8.82;;;6.05;;
65855;SDS011;52631;42.208;24.656;2022-10-18T07:46:28;10.18;;;5.60;;
65855;SDS011;52631;42.208;24.656;2022-10-18T07:48:54;10.43;;;5.90;;
65855;SDS011;52631;42.208;24.656;2022-10-18T07:51:19;9.50;;;5.18;;
65855;SDS011;52631;42.208;24.656;2022-10-18T07:53:45;11.73;;;5.72;;
65855;SDS011;52631;42.208;24.656;2022-10-18T07:56:12;9.38;;;5.63;;
65855;SDS011;52631;42.208;24.656;2022-10-18T08:01:07;9.27;;;5.05;;
65855;SDS011;52631;42.208;24.656;2022-10-18T08:03:33;9.27;;;5.20;;
65855;SDS011;52631;42.208;24.656;2022-10-18T08:05:59;10.32;;;5.40;;
65855;SDS011;52631;42.208;24.656;2022-10-18T08:08:25;9.55;;;5.28;;
65855;SDS011;52631;42.208;24.656;2022-10-18T08:10:51;8.98;;;5.80;;
65855;SDS011;52631;42.208;24.656;2022-10-18T08:13:17;9.18;;;5.63;;
65855;SDS011;52631;42.208;24.656;2022-10-18T08:15:42;8.77;;;5.75;;
65855;SDS011;52631;42.208;24.656;2022-10-18T08:18:08;12.13;;;6.20;;
65855;SDS011;52631;42.208;24.656;2022-10-18T08:20:34;11.77;;;6.10;;
65855;SDS011;52631;42.208;24.656;2022-10-18T08:23:01;14.65;;;6.05;;
65855;SDS011;52631;42.208;24.656;2022-10-18T08:25:27;12.10;;;6.25;;
65855;SDS011;52631;42.208;24.656;2022-10-18T08:27:53;9.63;;;5.95;;
65855;SDS011;52631;42.208;24.656;2022-10-18T08:30:18;9.63;;;5.07;;
65855;SDS011;52631;42.208;24.656;2022-10-18T08:32:44;8.35;;;5.30;;
65855;SDS011;52631;42.208;24.656;2022-10-18T08:35:09;12.05;;;6.30;;
65855;SDS011;52631;42.208;24.656;2022-10-18T08:37:35;9.82;;;5.20;;
65855;SDS011;52631;42.208;24.656;2022-10-18T08:40:00;8.32;;;5.50;;
65855;SDS011;52631;42.208;24.656;2022-10-18T08:45:10;12.02;;;5.80;;
65855;SDS011;52631;42.208;24.656;2022-10-18T08:47:37;5.75;;;4.18;;
65855;SDS011;52631;42.208;24.656;2022-10-18T08:50:14;6.88;;;4.82;;
65855;SDS011;52631;42.208;24.656;2022-10-18T08:55:46;7.65;;;5.50;;
65855;SDS011;52631;42.208;24.656;2022-10-18T08:58:20;6.13;;;4.03;;
65855;SDS011;52631;42.208;24.656;2022-10-18T09:16:33;8.43;;;4.18;;
65855;SDS011;52631;42.208;24.656;2022-10-18T09:19:10;6.53;;;3.90;;
65855;SDS011;52631;42.208;24.656;2022-10-18T09:22:06;8.20;;;4.63;;
65855;SDS011;52631;42.208;24.656;2022-10-18T09:24:44;8.15;;;4.68;;
65855;SDS011;52631;42.208;24.656;2022-10-18T09:27:16;7.25;;;4.40;;
65855;SDS011;52631;42.208;24.656;2022-10-18T09:36:12;9.25;;;3.95;;
65855;SDS011;52631;42.208;24.656;2022-10-18T09:38:20;7.10;;;3.72;;
65855;SDS011;52631;42.208;24.656;2022-10-18T09:40:55;9.18;;;4.28;;
65855;SDS011;52631;42.208;24.656;2022-10-18T09:43:44;8.43;;;4.03;;
65855;SDS011;52631;42.208;24.656;2022-10-18T09:46:14;7.00;;;4.20;;
65855;SDS011;52631;42.208;24.656;2022-10-18T09:48:43;6.75;;;3.83;;
65855;SDS011;52631;42.208;24.656;2022-10-18T09:51:11;11.57;;;4.07;;
65855;SDS011;52631;42.208;24.656;2022-10-18T09:54:01;7.45;;;4.15;;
65855;SDS011;52631;42.208;24.656;2022-10-18T09:56:52;11.17;;;3.90;;
65855;SDS011;52631;42.208;24.656;2022-10-18T10:01:58;5.75;;;3.88;;
65855;SDS011;52631;42.208;24.656;2022-10-18T10:04:24;6.80;;;4.00;;
65855;SDS011;52631;42.208;24.656;2022-10-18T10:06:50;6.30;;;3.72;;
65855;SDS011;52631;42.208;24.656;2022-10-18T10:09:19;8.50;;;3.92;;
65855;SDS011;52631;42.208;24.656;2022-10-18T10:11:49;7.47;;;3.75;;
65855;SDS011;52631;42.208;24.656;2022-10-18T10:14:19;6.68;;;3.85;;
65855;SDS011;52631;42.208;24.656;2022-10-18T10:22:11;8.48;;;3.92;;
65855;SDS011;52631;42.208;24.656;2022-10-18T10:27:15;9.30;;;3.80;;
65855;SDS011;52631;42.208;24.656;2022-10-18T10:30:02;8.20;;;4.25;;
65855;SDS011;52631;42.208;24.656;2022-10-18T10:32:30;6.72;;;3.47;;
65855;SDS011;52631;42.208;24.656;2022-10-18T10:34:56;8.20;;;3.75;;
65855;SDS011;52631;42.208;24.656;2022-10-18T10:40:17;7.40;;;3.28;;
65855;SDS011;52631;42.208;24.656;2022-10-18T10:45:54;6.78;;;3.40;;
65855;SDS011;52631;42.208;24.656;2022-10-18T10:48:33;5.40;;;3.17;;
65855;SDS011;52631;42.208;24.656;2022-10-18T10:51:07;8.43;;;3.80;;
65855;SDS011;52631;42.208;24.656;2022-10-18T10:56:00;7.88;;;3.50;;
65855;SDS011;52631;42.208;24.656;2022-10-18T10:58:26;11.05;;;4.30;;
65855;SDS011;52631;42.208;24.656;2022-10-18T11:00:54;7.47;;;3.70;;
65855;SDS011;52631;42.208;24.656;2022-10-18T11:03:21;7.63;;;2.97;;
65855;SDS011;52631;42.208;24.656;2022-10-18T11:05:51;5.63;;;3.25;;
65855;SDS011;52631;42.208;24.656;2022-10-18T11:08:19;7.45;;;3.33;;
65855;SDS011;52631;42.208;24.656;2022-10-18T11:13:51;6.15;;;3.45;;
65855;SDS011;52631;42.208;24.656;2022-10-18T11:16:41;6.75;;;3.10;;
65855;SDS011;52631;42.208;24.656;2022-10-18T11:22:13;6.05;;;3.85;;
65855;SDS011;52631;42.208;24.656;2022-10-18T11:24:40;7.25;;;3.35;;
65855;SDS011;52631;42.208;24.656;2022-10-18T11:38:12;5.50;;;2.85;;
65855;SDS011;52631;42.208;24.656;2022-10-18T11:40:57;6.53;;;3.00;;
65855;SDS011;52631;42.208;24.656;2022-10-18T12:05:32;5.53;;;3.10;;
65855;SDS011;52631;42.208;24.656;2022-10-18T12:08:17;8.52;;;2.92;;
65855;SDS011;52631;42.208;24.656;2022-10-18T12:10:46;9.02;;;5.22;;
65855;SDS011;52631;42.208;24.656;2022-10-18T12:13:22;7.30;;;3.10;;
65855;SDS011;52631;42.208;24.656;2022-10-18T12:16:10;6.30;;;3.97;;
65855;SDS011;52631;42.208;24.656;2022-10-18T12:18:40;8.63;;;2.55;;
65855;SDS011;52631;42.208;24.656;2022-10-18T12:21:09;5.10;;;2.10;;
65855;SDS011;52631;42.208;24.656;2022-10-18T12:23:48;3.90;;;1.80;;
65855;SDS011;52631;42.208;24.656;2022-10-18T12:26:16;10.25;;;3.60;;
65855;SDS011;52631;42.208;24.656;2022-10-18T12:34:03;5.22;;;2.10;;
65855;SDS011;52631;42.208;24.656;2022-10-18T12:36:46;17.25;;;2.70;;
65855;SDS011;52631;42.208;24.656;2022-10-18T12:39:19;6.43;;;1.85;;
65855;SDS011;52631;42.208;24.656;2022-10-18T12:41:49;3.90;;;2.17;;
65855;SDS011;52631;42.208;24.656;2022-10-18T12:46:55;6.95;;;2.30;;
65855;SDS011;52631;42.208;24.656;2022-10-18T12:51:54;5.93;;;2.50;;
65855;SDS011;52631;42.208;24.656;2022-10-18T12:54:25;6.53;;;2.50;;
65855;SDS011;52631;42.208;24.656;2022-10-18T12:56:59;5.60;;;2.80;;
65855;SDS011;52631;42.208;24.656;2022-10-18T13:04:50;6.15;;;2.13;;
65855;SDS011;52631;42.208;24.656;2022-10-18T13:09:35;9.45;;;2.97;;
65855;SDS011;52631;42.208;24.656;2022-10-18T13:17:24;5.93;;;2.10;;
65855;SDS011;52631;42.208;24.656;2022-10-18T13:23:02;5.10;;;2.17;;
65855;SDS011;52631;42.208;24.656;2022-10-18T13:25:31;4.35;;;2.35;;
65855;SDS011;52631;42.208;24.656;2022-10-18T13:36:03;5.18;;;2.58;;
65855;SDS011;52631;42.208;24.656;2022-10-18T13:41:27;5.75;;;2.25;;
65855;SDS011;52631;42.208;24.656;2022-10-18T13:46:19;5.30;;;2.00;;
65855;SDS011;52631;42.208;24.656;2022-10-18T14:06:01;7.22;;;2.35;;
65855;SDS011;52631;42.208;24.656;2022-10-18T14:09:02;9.85;;;2.38;;
65855;SDS011;52631;42.208;24.656;2022-10-18T14:19:40;15.07;;;3.00;;
65855;SDS011;52631;42.208;24.656;2022-10-18T14:22:24;5.25;;;2.50;;
65855;SDS011;52631;42.208;24.656;2022-10-18T14:24:53;7.53;;;2.45;;
65855;SDS011;52631;42.208;24.656;2022-10-18T14:27:24;17.23;;;3.75;;
65855;SDS011;52631;42.208;24.656;2022-10-18T14:30:06;5.72;;;2.42;;
65855;SDS011;52631;42.208;24.656;2022-10-18T14:32:31;5.63;;;2.70;;
65855;SDS011;52631;42.208;24.656;2022-10-18T14:34:57;6.25;;;3.28;;
65855;SDS011;52631;42.208;24.656;2022-10-18T14:37:33;8.43;;;3.60;;
65855;SDS011;52631;42.208;24.656;2022-10-18T14:39:59;7.53;;;3.38;;
65855;SDS011;52631;42.208;24.656;2022-10-18T14:42:25;6.68;;;3.30;;
65855;SDS011;52631;42.208;24.656;2022-10-18T14:44:51;8.07;;;3.67;;
65855;SDS011;52631;42.208;24.656;2022-10-18T14:47:25;6.38;;;3.47;;
65855;SDS011;52631;42.208;24.656;2022-10-18T14:49:51;27.60;;;4.72;;
65855;SDS011;52631;42.208;24.656;2022-10-18T14:52:31;12.85;;;4.40;;
65855;SDS011;52631;42.208;24.656;2022-10-18T14:54:57;17.90;;;5.00;;
65855;SDS011;52631;42.208;24.656;2022-10-18T14:57:25;22.70;;;5.80;;
65855;SDS011;52631;42.208;24.656;2022-10-18T14:59:54;13.15;;;5.53;;
65855;SDS011;52631;42.208;24.656;2022-10-18T15:02:24;16.10;;;6.30;;
65855;SDS011;52631;42.208;24.656;2022-10-18T15:04:54;9.05;;;4.90;;
65855;SDS011;52631;42.208;24.656;2022-10-18T15:07:20;9.60;;;4.07;;
65855;SDS011;52631;42.208;24.656;2022-10-18T15:09:46;11.98;;;4.53;;
65855;SDS011;52631;42.208;24.656;2022-10-18T15:12:12;12.70;;;5.18;;
65855;SDS011;52631;42.208;24.656;2022-10-18T15:14:39;8.70;;;4.53;;
65855;SDS011;52631;42.208;24.656;2022-10-18T15:17:13;10.20;;;5.40;;
65855;SDS011;52631;42.208;24.656;2022-10-18T15:20:04;16.23;;;5.72;;
65855;SDS011;52631;42.208;24.656;2022-10-18T15:22:52;13.20;;;4.85;;
65855;SDS011;52631;42.208;24.656;2022-10-18T15:27:54;20.17;;;5.43;;
65855;SDS011;52631;42.208;24.656;2022-10-18T15:30:26;14.02;;;5.07;;
65855;SDS011;52631;42.208;24.656;2022-10-18T15:35:26;9.50;;;4.40;;
65855;SDS011;52631;42.208;24.656;2022-10-18T15:37:54;19.88;;;6.05;;
65855;SDS011;52631;42.208;24.656;2022-10-18T15:42:50;14.10;;;5.22;;
65855;SDS011;52631;42.208;24.656;2022-10-18T15:48:02;22.15;;;6.20;;
65855;SDS011;52631;42.208;24.656;2022-10-18T15:55:46;16.38;;;5.85;;
65855;SDS011;52631;42.208;24.656;2022-10-18T16:00:42;13.60;;;6.53;;
65855;SDS011;52631;42.208;24.656;2022-10-18T16:03:12;14.20;;;6.38;;
65855;SDS011;52631;42.208;24.656;2022-10-18T16:05:40;18.05;;;7.32;;
65855;SDS011;52631;42.208;24.656;2022-10-18T16:08:15;14.38;;;6.60;;
65855;SDS011;52631;42.208;24.656;2022-10-18T16:10:43;14.70;;;7.07;;
65855;SDS011;52631;42.208;24.656;2022-10-18T16:13:08;12.45;;;6.85;;
65855;SDS011;52631;42.208;24.656;2022-10-18T16:15:35;12.63;;;6.32;;
65855;SDS011;52631;42.208;24.656;2022-10-18T16:18:00;13.63;;;7.07;;
65855;SDS011;52631;42.208;24.656;2022-10-18T16:20:26;13.52;;;7.55;;
65855;SDS011;52631;42.208;24.656;2022-10-18T16:22:52;11.60;;;6.75;;
65855;SDS011;52631;42.208;24.656;2022-10-18T16:25:17;14.55;;;7.07;;
65855;SDS011;52631;42.208;24.656;2022-10-18T16:27:43;12.23;;;6.72;;
65855;SDS011;52631;42.208;24.656;2022-10-18T16:30:10;15.82;;;7.57;;
65855;SDS011;52631;42.208;24.656;2022-10-18T16:32:37;12.00;;;6.78;;
65855;SDS011;52631;42.208;24.656;2022-10-18T16:35:04;12.23;;;7.18;;
65855;SDS011;52631;42.208;24.656;2022-10-18T16:37:30;20.00;;;7.32;;
65855;SDS011;52631;42.208;24.656;2022-10-18T16:39:56;15.32;;;7.43;;
65855;SDS011;52631;42.208;24.656;2022-10-18T16:42:21;13.70;;;7.05;;
65855;SDS011;52631;42.208;24.656;2022-10-18T16:44:47;14.15;;;6.93;;
65855;SDS011;52631;42.208;24.656;2022-10-18T16:47:13;16.27;;;7.40;;
65855;SDS011;52631;42.208;24.656;2022-10-18T16:49:38;13.65;;;7.90;;
65855;SDS011;52631;42.208;24.656;2022-10-18T16:52:04;13.25;;;6.85;;
65855;SDS011;52631;42.208;24.656;2022-10-18T16:54:30;13.77;;;6.40;;
65855;SDS011;52631;42.208;24.656;2022-10-18T16:56:55;20.52;;;7.70;;
65855;SDS011;52631;42.208;24.656;2022-10-18T16:59:25;13.95;;;7.25;;
65855;SDS011;52631;42.208;24.656;2022-10-18T17:01:52;21.25;;;8.98;;
65855;SDS011;52631;42.208;24.656;2022-10-18T17:04:17;27.02;;;9.80;;
65855;SDS011;52631;42.208;24.656;2022-10-18T17:06:44;18.27;;;10.13;;
65855;SDS011;52631;42.208;24.656;2022-10-18T17:09:10;19.85;;;9.65;;
65855;SDS011;52631;42.208;24.656;2022-10-18T17:11:37;25.45;;;10.57;;
65855;SDS011;52631;42.208;24.656;2022-10-18T17:14:03;16.65;;;9.60;;
65855;SDS011;52631;42.208;24.656;2022-10-18T17:16:29;19.60;;;9.88;;
65855;SDS011;52631;42.208;24.656;2022-10-18T17:18:57;20.50;;;9.35;;
65855;SDS011;52631;42.208;24.656;2022-10-18T17:21:25;19.13;;;9.43;;
65855;SDS011;52631;42.208;24.656;2022-10-18T17:23:51;20.60;;;10.52;;
65855;SDS011;52631;42.208;24.656;2022-10-18T17:26:21;18.23;;;9.65;;
65855;SDS011;52631;42.208;24.656;2022-10-18T17:28:54;20.42;;;10.23;;
65855;SDS011;52631;42.208;24.656;2022-10-18T17:31:24;16.58;;;9.82;;
65855;SDS011;52631;42.208;24.656;2022-10-18T17:33:49;21.92;;;10.13;;
65855;SDS011;52631;42.208;24.656;2022-10-18T17:36:15;20.23;;;10.25;;
65855;SDS011;52631;42.208;24.656;2022-10-18T17:38:40;22.17;;;10.73;;
65855;SDS011;52631;42.208;24.656;2022-10-18T17:41:06;20.85;;;10.95;;
65855;SDS011;52631;42.208;24.656;2022-10-18T17:43:36;28.35;;;13.75;;
65855;SDS011;52631;42.208;24.656;2022-10-18T17:46:09;22.17;;;10.93;;
65855;SDS011;52631;42.208;24.656;2022-10-18T17:48:36;23.73;;;11.63;;
65855;SDS011;52631;42.208;24.656;2022-10-18T17:51:07;20.67;;;9.95;;